sensor_id;sensor_type;location;lat;lon;timestamp;P1;durP1;ratioP1;P2;durP2;ratioP2
13981;SDS011;7065;50.880;5.502;2023-06-14T00:00:18;6.95;;;6.35;;
13981;SDS011;7065;50.880;5.502;2023-06-14T00:02:44;6.45;;;5.95;;
13981;SDS011;7065;50.880;5.502;2023-06-14T00:05:10;6.85;;;6.15;;
13981;SDS011;7065;50.880;5.502;2023-06-14T00:07:40;7.53;;;6.35;;
13981;SDS011;7065;50.880;5.502;2023-06-14T00:10:10;7.43;;;6.65;;
13981;SDS011;7065;50.880;5.502;2023-06-14T00:12:36;6.85;;;6.18;;
13981;SDS011;7065;50.880;5.502;2023-06-14T00:15:03;6.60;;;6.10;;
13981;SDS011;7065;50.880;5.502;2023-06-14T00:17:29;6.43;;;5.93;;
13981;SDS011;7065;50.880;5.502;2023-06-14T00:19:56;7.53;;;6.47;;
13981;SDS011;7065;50.880;5.502;2023-06-14T00:22:22;6.78;;;6.18;;
13981;SDS011;7065;50.880;5.502;2023-06-14T00:24:53;6.38;;;5.78;;
13981;SDS011;7065;50.880;5.502;2023-06-14T00:27:19;7.10;;;6.40;;
13981;SDS011;7065;50.880;5.502;2023-06-14T00:29:45;6.55;;;5.95;;
13981;SDS011;7065;50.880;5.502;2023-06-14T00:32:11;7.15;;;6.32;;
13981;SDS011;7065;50.880;5.502;2023-06-14T00:34:36;6.45;;;5.88;;
13981;SDS011;7065;50.880;5.502;2023-06-14T00:37:02;6.68;;;6.07;;
13981;SDS011;7065;50.880;5.502;2023-06-14T00:39:28;6.70;;;6.10;;
13981;SDS011;7065;50.880;5.502;2023-06-14T00:41:54;7.05;;;6.45;;
13981;SDS011;7065;50.880;5.502;2023-06-14T00:44:20;6.70;;;6.00;;
13981;SDS011;7065;50.880;5.502;2023-06-14T00:46:46;6.50;;;5.90;;
13981;SDS011;7065;50.880;5.502;2023-06-14T00:49:13;6.90;;;6.30;;
13981;SDS011;7065;50.880;5.502;2023-06-14T00:51:41;6.82;;;6.22;;
13981;SDS011;7065;50.880;5.502;2023-06-14T00:54:07;6.30;;;5.75;;
13981;SDS011;7065;50.880;5.502;2023-06-14T00:56:35;6.75;;;6.15;;
13981;SDS011;7065;50.880;5.502;2023-06-14T00:59:01;6.57;;;5.97;;
13981;SDS011;7065;50.880;5.502;2023-06-14T01:01:28;6.20;;;5.65;;
13981;SDS011;7065;50.880;5.502;2023-06-14T01:03:57;6.82;;;6.22;;
13981;SDS011;7065;50.880;5.502;2023-06-14T01:06:45;6.82;;;6.22;;
13981;SDS011;7065;50.880;5.502;2023-06-14T01:14:43;6.47;;;5.88;;
13981;SDS011;7065;50.880;5.502;2023-06-14T01:17:11;6.88;;;6.18;;
13981;SDS011;7065;50.880;5.502;2023-06-14T01:19:42;6.85;;;6.25;;
13981;SDS011;7065;50.880;5.502;2023-06-14T01:22:08;7.50;;;6.80;;
13981;SDS011;7065;50.880;5.502;2023-06-14T01:24:34;7.07;;;6.47;;
13981;SDS011;7065;50.880;5.502;2023-06-14T01:27:00;6.82;;;6.03;;
13981;SDS011;7065;50.880;5.502;2023-06-14T01:29:27;6.80;;;6.20;;
13981;SDS011;7065;50.880;5.502;2023-06-14T01:31:58;7.57;;;6.55;;
13981;SDS011;7065;50.880;5.502;2023-06-14T01:34:27;9.80;;;7.38;;
13981;SDS011;7065;50.880;5.502;2023-06-14T01:36:53;7.75;;;7.00;;
13981;SDS011;7065;50.880;5.502;2023-06-14T01:39:22;7.65;;;6.95;;
13981;SDS011;7065;50.880;5.502;2023-06-14T01:41:49;7.82;;;6.65;;
13981;SDS011;7065;50.880;5.502;2023-06-14T01:44:16;6.88;;;6.28;;
13981;SDS011;7065;50.880;5.502;2023-06-14T01:46:43;7.63;;;7.03;;
13981;SDS011;7065;50.880;5.502;2023-06-14T01:49:10;7.60;;;6.70;;
13981;SDS011;7065;50.880;5.502;2023-06-14T01:51:36;8.07;;;6.30;;
13981;SDS011;7065;50.880;5.502;2023-06-14T01:54:02;9.23;;;7.32;;
13981;SDS011;7065;50.880;5.502;2023-06-14T01:56:28;7.55;;;6.85;;
13981;SDS011;7065;50.880;5.502;2023-06-14T01:58:54;7.72;;;6.97;;
13981;SDS011;7065;50.880;5.502;2023-06-14T02:01:21;7.47;;;6.88;;
13981;SDS011;7065;50.880;5.502;2023-06-14T02:03:47;7.80;;;7.10;;
13981;SDS011;7065;50.880;5.502;2023-06-14T02:06:14;7.30;;;6.70;;
13981;SDS011;7065;50.880;5.502;2023-06-14T02:08:41;7.70;;;6.82;;
13981;SDS011;7065;50.880;5.502;2023-06-14T02:11:07;7.88;;;7.07;;
13981;SDS011;7065;50.880;5.502;2023-06-14T02:13:33;7.82;;;7.00;;
13981;SDS011;7065;50.880;5.502;2023-06-14T02:15:59;7.63;;;6.70;;
13981;SDS011;7065;50.880;5.502;2023-06-14T02:18:25;8.25;;;7.55;;
13981;SDS011;7065;50.880;5.502;2023-06-14T02:20:52;7.95;;;7.25;;
13981;SDS011;7065;50.880;5.502;2023-06-14T02:23:18;7.70;;;7.00;;
13981;SDS011;7065;50.880;5.502;2023-06-14T02:25:43;8.32;;;7.35;;
13981;SDS011;7065;50.880;5.502;2023-06-14T02:28:11;7.60;;;6.90;;
13981;SDS011;7065;50.880;5.502;2023-06-14T02:30:36;7.45;;;6.85;;
13981;SDS011;7065;50.880;5.502;2023-06-14T02:33:02;8.20;;;7.38;;
13981;SDS011;7065;50.880;5.502;2023-06-14T02:35:29;6.78;;;6.22;;
13981;SDS011;7065;50.880;5.502;2023-06-14T02:37:55;7.38;;;6.68;;
13981;SDS011;7065;50.880;5.502;2023-06-14T02:40:21;8.38;;;6.95;;
13981;SDS011;7065;50.880;5.502;2023-06-14T02:42:48;7.07;;;6.47;;
13981;SDS011;7065;50.880;5.502;2023-06-14T02:45:14;7.63;;;6.82;;
13981;SDS011;7065;50.880;5.502;2023-06-14T02:47:40;7.93;;;7.15;;
13981;SDS011;7065;50.880;5.502;2023-06-14T02:50:06;8.85;;;7.57;;
13981;SDS011;7065;50.880;5.502;2023-06-14T02:52:32;7.88;;;7.18;;
13981;SDS011;7065;50.880;5.502;2023-06-14T02:54:58;7.85;;;7.15;;
13981;SDS011;7065;50.880;5.502;2023-06-14T02:57:24;7.93;;;7.20;;
13981;SDS011;7065;50.880;5.502;2023-06-14T02:59:50;8.13;;;7.35;;
13981;SDS011;7065;50.880;5.502;2023-06-14T03:02:17;8.18;;;7.35;;
13981;SDS011;7065;50.880;5.502;2023-06-14T03:04:43;7.97;;;7.28;;
13981;SDS011;7065;50.880;5.502;2023-06-14T03:07:09;8.75;;;7.47;;
13981;SDS011;7065;50.880;5.502;2023-06-14T03:09:35;8.52;;;7.72;;
13981;SDS011;7065;50.880;5.502;2023-06-14T03:12:02;8.05;;;7.28;;
13981;SDS011;7065;50.880;5.502;2023-06-14T03:14:29;8.95;;;8.05;;
13981;SDS011;7065;50.880;5.502;2023-06-14T03:16:55;8.05;;;7.35;;
13981;SDS011;7065;50.880;5.502;2023-06-14T03:19:25;9.95;;;7.88;;
13981;SDS011;7065;50.880;5.502;2023-06-14T03:21:51;9.90;;;7.88;;
13981;SDS011;7065;50.880;5.502;2023-06-14T03:24:18;8.40;;;7.32;;
13981;SDS011;7065;50.880;5.502;2023-06-14T03:26:44;9.27;;;7.53;;
13981;SDS011;7065;50.880;5.502;2023-06-14T03:29:11;8.10;;;7.28;;
13981;SDS011;7065;50.880;5.502;2023-06-14T03:31:41;7.45;;;6.75;;
13981;SDS011;7065;50.880;5.502;2023-06-14T03:34:22;8.95;;;8.05;;
13981;SDS011;7065;50.880;5.502;2023-06-14T03:36:47;10.30;;;7.55;;
13981;SDS011;7065;50.880;5.502;2023-06-14T03:39:14;8.63;;;7.72;;
13981;SDS011;7065;50.880;5.502;2023-06-14T03:41:40;8.55;;;7.50;;
13981;SDS011;7065;50.880;5.502;2023-06-14T03:44:05;8.30;;;7.50;;
13981;SDS011;7065;50.880;5.502;2023-06-14T03:46:31;8.75;;;7.85;;
13981;SDS011;7065;50.880;5.502;2023-06-14T03:48:56;7.88;;;7.20;;
13981;SDS011;7065;50.880;5.502;2023-06-14T03:51:22;8.30;;;7.50;;
13981;SDS011;7065;50.880;5.502;2023-06-14T03:53:48;8.45;;;7.65;;
13981;SDS011;7065;50.880;5.502;2023-06-14T03:56:14;9.00;;;7.57;;
13981;SDS011;7065;50.880;5.502;2023-06-14T03:58:40;8.65;;;7.85;;
13981;SDS011;7065;50.880;5.502;2023-06-14T04:01:06;10.38;;;8.73;;
13981;SDS011;7065;50.880;5.502;2023-06-14T04:03:32;7.93;;;7.15;;
13981;SDS011;7065;50.880;5.502;2023-06-14T04:05:58;8.90;;;8.10;;
13981;SDS011;7065;50.880;5.502;2023-06-14T04:08:25;9.02;;;7.93;;
13981;SDS011;7065;50.880;5.502;2023-06-14T04:10:50;8.35;;;7.55;;
13981;SDS011;7065;50.880;5.502;2023-06-14T04:13:16;8.05;;;7.38;;
13981;SDS011;7065;50.880;5.502;2023-06-14T04:15:42;8.38;;;7.57;;
13981;SDS011;7065;50.880;5.502;2023-06-14T04:18:10;7.55;;;6.85;;
13981;SDS011;7065;50.880;5.502;2023-06-14T04:20:36;8.68;;;7.88;;
13981;SDS011;7065;50.880;5.502;2023-06-14T04:23:12;7.45;;;6.75;;
13981;SDS011;7065;50.880;5.502;2023-06-14T04:25:38;8.45;;;7.60;;
13981;SDS011;7065;50.880;5.502;2023-06-14T04:28:05;7.95;;;7.25;;
13981;SDS011;7065;50.880;5.502;2023-06-14T04:30:33;8.13;;;7.32;;
13981;SDS011;7065;50.880;5.502;2023-06-14T04:33:00;8.13;;;7.43;;
13981;SDS011;7065;50.880;5.502;2023-06-14T04:35:25;8.43;;;7.63;;
13981;SDS011;7065;50.880;5.502;2023-06-14T04:37:54;8.40;;;7.60;;
13981;SDS011;7065;50.880;5.502;2023-06-14T04:40:20;8.70;;;7.57;;
13981;SDS011;7065;50.880;5.502;2023-06-14T04:42:45;8.98;;;8.02;;
13981;SDS011;7065;50.880;5.502;2023-06-14T04:45:12;9.07;;;7.80;;
13981;SDS011;7065;50.880;5.502;2023-06-14T04:47:38;8.32;;;7.28;;
13981;SDS011;7065;50.880;5.502;2023-06-14T04:50:04;8.52;;;7.63;;
13981;SDS011;7065;50.880;5.502;2023-06-14T04:52:30;8.10;;;7.40;;
13981;SDS011;7065;50.880;5.502;2023-06-14T04:54:56;8.35;;;7.55;;
13981;SDS011;7065;50.880;5.502;2023-06-14T04:57:22;7.93;;;7.22;;
13981;SDS011;7065;50.880;5.502;2023-06-14T04:59:50;11.38;;;8.45;;
13981;SDS011;7065;50.880;5.502;2023-06-14T05:02:20;11.50;;;8.13;;
13981;SDS011;7065;50.880;5.502;2023-06-14T05:04:48;12.52;;;9.00;;
13981;SDS011;7065;50.880;5.502;2023-06-14T05:07:15;9.48;;;8.35;;
13981;SDS011;7065;50.880;5.502;2023-06-14T05:09:41;9.77;;;8.68;;
13981;SDS011;7065;50.880;5.502;2023-06-14T05:12:07;9.15;;;8.23;;
13981;SDS011;7065;50.880;5.502;2023-06-14T05:14:33;9.25;;;8.02;;
13981;SDS011;7065;50.880;5.502;2023-06-14T05:16:59;8.75;;;7.85;;
13981;SDS011;7065;50.880;5.502;2023-06-14T05:19:26;9.45;;;8.40;;
13981;SDS011;7065;50.880;5.502;2023-06-14T05:21:52;9.15;;;8.25;;
13981;SDS011;7065;50.880;5.502;2023-06-14T05:24:18;9.43;;;8.48;;
13981;SDS011;7065;50.880;5.502;2023-06-14T05:26:44;11.85;;;8.48;;
13981;SDS011;7065;50.880;5.502;2023-06-14T05:29:10;8.52;;;7.72;;
13981;SDS011;7065;50.880;5.502;2023-06-14T05:31:35;8.95;;;8.05;;
13981;SDS011;7065;50.880;5.502;2023-06-14T05:34:01;9.32;;;8.43;;
13981;SDS011;7065;50.880;5.502;2023-06-14T05:36:27;9.43;;;8.07;;
13981;SDS011;7065;50.880;5.502;2023-06-14T05:38:53;8.70;;;7.90;;
13981;SDS011;7065;50.880;5.502;2023-06-14T05:41:26;10.98;;;8.63;;
13981;SDS011;7065;50.880;5.502;2023-06-14T05:43:55;9.15;;;8.10;;
13981;SDS011;7065;50.880;5.502;2023-06-14T05:46:22;8.88;;;8.00;;
13981;SDS011;7065;50.880;5.502;2023-06-14T05:48:53;8.85;;;7.95;;
13981;SDS011;7065;50.880;5.502;2023-06-14T05:51:20;8.82;;;7.60;;
13981;SDS011;7065;50.880;5.502;2023-06-14T05:53:47;7.57;;;6.75;;
13981;SDS011;7065;50.880;5.502;2023-06-14T05:56:13;8.95;;;8.05;;
13981;SDS011;7065;50.880;5.502;2023-06-14T05:58:40;11.93;;;8.13;;
13981;SDS011;7065;50.880;5.502;2023-06-14T06:01:06;8.43;;;7.60;;
13981;SDS011;7065;50.880;5.502;2023-06-14T06:03:32;10.13;;;7.85;;
13981;SDS011;7065;50.880;5.502;2023-06-14T06:05:58;8.73;;;7.88;;
13981;SDS011;7065;50.880;5.502;2023-06-14T06:08:24;8.50;;;7.70;;
13981;SDS011;7065;50.880;5.502;2023-06-14T06:10:50;8.00;;;7.30;;
13981;SDS011;7065;50.880;5.502;2023-06-14T06:13:16;8.32;;;7.32;;
13981;SDS011;7065;50.880;5.502;2023-06-14T06:15:42;8.70;;;7.40;;
13981;SDS011;7065;50.880;5.502;2023-06-14T06:18:07;7.50;;;6.80;;
13981;SDS011;7065;50.880;5.502;2023-06-14T06:20:33;9.48;;;7.68;;
13981;SDS011;7065;50.880;5.502;2023-06-14T06:22:59;8.10;;;7.30;;
13981;SDS011;7065;50.880;5.502;2023-06-14T06:25:25;8.20;;;7.47;;
13981;SDS011;7065;50.880;5.502;2023-06-14T06:27:52;6.55;;;6.03;;
13981;SDS011;7065;50.880;5.502;2023-06-14T06:30:24;9.27;;;7.57;;
13981;SDS011;7065;50.880;5.502;2023-06-14T06:32:50;8.73;;;7.88;;
13981;SDS011;7065;50.880;5.502;2023-06-14T06:35:16;8.02;;;6.47;;
13981;SDS011;7065;50.880;5.502;2023-06-14T06:37:42;7.85;;;6.97;;
13981;SDS011;7065;50.880;5.502;2023-06-14T06:40:09;9.40;;;7.50;;
13981;SDS011;7065;50.880;5.502;2023-06-14T06:42:35;8.00;;;7.28;;
13981;SDS011;7065;50.880;5.502;2023-06-14T06:45:01;8.95;;;7.20;;
13981;SDS011;7065;50.880;5.502;2023-06-14T06:47:27;8.60;;;6.63;;
13981;SDS011;7065;50.880;5.502;2023-06-14T06:49:53;7.75;;;6.45;;
13981;SDS011;7065;50.880;5.502;2023-06-14T06:52:19;7.65;;;6.95;;
13981;SDS011;7065;50.880;5.502;2023-06-14T06:54:45;8.60;;;6.78;;
13981;SDS011;7065;50.880;5.502;2023-06-14T06:57:10;7.47;;;6.65;;
13981;SDS011;7065;50.880;5.502;2023-06-14T06:59:36;9.52;;;7.13;;
13981;SDS011;7065;50.880;5.502;2023-06-14T07:02:02;10.43;;;7.00;;
13981;SDS011;7065;50.880;5.502;2023-06-14T07:04:28;8.05;;;6.93;;
13981;SDS011;7065;50.880;5.502;2023-06-14T07:06:54;8.32;;;6.53;;
13981;SDS011;7065;50.880;5.502;2023-06-14T07:09:20;8.57;;;6.68;;
13981;SDS011;7065;50.880;5.502;2023-06-14T07:11:46;8.32;;;6.47;;
13981;SDS011;7065;50.880;5.502;2023-06-14T07:14:12;9.20;;;7.07;;
13981;SDS011;7065;50.880;5.502;2023-06-14T07:16:38;7.18;;;6.47;;
13981;SDS011;7065;50.880;5.502;2023-06-14T07:19:04;9.80;;;6.80;;
13981;SDS011;7065;50.880;5.502;2023-06-14T07:21:30;11.38;;;6.88;;
13981;SDS011;7065;50.880;5.502;2023-06-14T07:23:56;8.63;;;6.65;;
13981;SDS011;7065;50.880;5.502;2023-06-14T07:26:24;9.82;;;6.47;;
13981;SDS011;7065;50.880;5.502;2023-06-14T07:28:50;6.65;;;5.95;;
13981;SDS011;7065;50.880;5.502;2023-06-14T07:31:16;6.63;;;5.93;;
13981;SDS011;7065;50.880;5.502;2023-06-14T07:33:43;6.00;;;5.40;;
13981;SDS011;7065;50.880;5.502;2023-06-14T07:36:09;7.68;;;5.50;;
13981;SDS011;7065;50.880;5.502;2023-06-14T07:38:34;11.05;;;5.97;;
13981;SDS011;7065;50.880;5.502;2023-06-14T07:41:01;7.63;;;5.50;;
13981;SDS011;7065;50.880;5.502;2023-06-14T07:43:27;6.05;;;4.95;;
13981;SDS011;7065;50.880;5.502;2023-06-14T07:45:53;7.80;;;5.18;;
13981;SDS011;7065;50.880;5.502;2023-06-14T07:48:20;6.68;;;5.18;;
13981;SDS011;7065;50.880;5.502;2023-06-14T07:50:45;7.07;;;4.90;;
13981;SDS011;7065;50.880;5.502;2023-06-14T07:53:11;8.52;;;5.10;;
13981;SDS011;7065;50.880;5.502;2023-06-14T07:55:37;6.85;;;5.60;;
13981;SDS011;7065;50.880;5.502;2023-06-14T07:58:04;6.38;;;5.43;;
13981;SDS011;7065;50.880;5.502;2023-06-14T08:00:31;9.00;;;5.97;;
13981;SDS011;7065;50.880;5.502;2023-06-14T08:02:57;7.97;;;5.55;;
13981;SDS011;7065;50.880;5.502;2023-06-14T08:05:24;8.05;;;5.40;;
13981;SDS011;7065;50.880;5.502;2023-06-14T08:07:53;6.57;;;5.07;;
13981;SDS011;7065;50.880;5.502;2023-06-14T08:10:19;9.18;;;5.32;;
13981;SDS011;7065;50.880;5.502;2023-06-14T08:12:45;7.13;;;5.45;;
13981;SDS011;7065;50.880;5.502;2023-06-14T08:15:10;7.53;;;5.00;;
13981;SDS011;7065;50.880;5.502;2023-06-14T08:17:36;7.70;;;5.60;;
13981;SDS011;7065;50.880;5.502;2023-06-14T08:20:02;5.95;;;5.35;;
13981;SDS011;7065;50.880;5.502;2023-06-14T08:22:31;5.10;;;4.65;;
13981;SDS011;7065;50.880;5.502;2023-06-14T08:25:01;5.10;;;4.60;;
13981;SDS011;7065;50.880;5.502;2023-06-14T08:27:27;6.53;;;4.78;;
13981;SDS011;7065;50.880;5.502;2023-06-14T08:29:53;8.13;;;5.45;;
13981;SDS011;7065;50.880;5.502;2023-06-14T08:32:18;8.68;;;4.70;;
13981;SDS011;7065;50.880;5.502;2023-06-14T08:34:44;5.65;;;4.40;;
13981;SDS011;7065;50.880;5.502;2023-06-14T08:37:10;5.18;;;4.68;;
13981;SDS011;7065;50.880;5.502;2023-06-14T08:39:36;6.03;;;4.35;;
13981;SDS011;7065;50.880;5.502;2023-06-14T08:42:02;8.65;;;4.90;;
13981;SDS011;7065;50.880;5.502;2023-06-14T08:44:29;5.70;;;5.10;;
13981;SDS011;7065;50.880;5.502;2023-06-14T08:46:55;9.65;;;4.88;;
13981;SDS011;7065;50.880;5.502;2023-06-14T08:49:24;7.85;;;4.95;;
13981;SDS011;7065;50.880;5.502;2023-06-14T08:51:53;7.72;;;4.45;;
13981;SDS011;7065;50.880;5.502;2023-06-14T08:54:25;8.13;;;5.18;;
13981;SDS011;7065;50.880;5.502;2023-06-14T08:56:59;6.05;;;4.53;;
13981;SDS011;7065;50.880;5.502;2023-06-14T08:59:28;4.28;;;3.88;;
13981;SDS011;7065;50.880;5.502;2023-06-14T09:01:56;6.90;;;4.40;;
13981;SDS011;7065;50.880;5.502;2023-06-14T09:04:22;5.07;;;4.00;;
13981;SDS011;7065;50.880;5.502;2023-06-14T09:06:50;5.45;;;4.20;;
13981;SDS011;7065;50.880;5.502;2023-06-14T09:09:18;4.90;;;3.97;;
13981;SDS011;7065;50.880;5.502;2023-06-14T09:11:45;5.13;;;3.97;;
13981;SDS011;7065;50.880;5.502;2023-06-14T09:14:11;6.47;;;4.00;;
13981;SDS011;7065;50.880;5.502;2023-06-14T09:16:37;8.73;;;4.25;;
13981;SDS011;7065;50.880;5.502;2023-06-14T09:19:03;4.20;;;3.80;;
13981;SDS011;7065;50.880;5.502;2023-06-14T09:21:29;6.07;;;3.95;;
13981;SDS011;7065;50.880;5.502;2023-06-14T09:24:01;7.63;;;4.22;;
13981;SDS011;7065;50.880;5.502;2023-06-14T09:26:27;6.32;;;3.80;;
13981;SDS011;7065;50.880;5.502;2023-06-14T09:28:53;4.38;;;3.72;;
13981;SDS011;7065;50.880;5.502;2023-06-14T09:31:20;7.03;;;3.83;;
13981;SDS011;7065;50.880;5.502;2023-06-14T09:33:50;4.78;;;3.65;;
13981;SDS011;7065;50.880;5.502;2023-06-14T09:36:16;8.23;;;3.70;;
13981;SDS011;7065;50.880;5.502;2023-06-14T09:38:57;6.93;;;4.00;;
13981;SDS011;7065;50.880;5.502;2023-06-14T09:41:30;5.00;;;3.55;;
13981;SDS011;7065;50.880;5.502;2023-06-14T09:44:04;3.75;;;3.40;;
13981;SDS011;7065;50.880;5.502;2023-06-14T09:46:31;3.50;;;3.13;;
13981;SDS011;7065;50.880;5.502;2023-06-14T09:48:57;6.22;;;3.50;;
13981;SDS011;7065;50.880;5.502;2023-06-14T09:51:23;7.10;;;3.58;;
13981;SDS011;7065;50.880;5.502;2023-06-14T09:53:50;3.45;;;3.15;;
13981;SDS011;7065;50.880;5.502;2023-06-14T09:56:23;3.95;;;3.25;;
13981;SDS011;7065;50.880;5.502;2023-06-14T09:58:51;5.20;;;3.33;;
13981;SDS011;7065;50.880;5.502;2023-06-14T10:01:19;3.35;;;3.05;;
13981;SDS011;7065;50.880;5.502;2023-06-14T10:03:46;6.82;;;3.05;;
13981;SDS011;7065;50.880;5.502;2023-06-14T10:06:15;3.05;;;2.72;;
13981;SDS011;7065;50.880;5.502;2023-06-14T10:08:41;5.50;;;3.13;;
13981;SDS011;7065;50.880;5.502;2023-06-14T10:11:08;4.43;;;2.55;;
13981;SDS011;7065;50.880;5.502;2023-06-14T10:13:36;6.63;;;3.25;;
13981;SDS011;7065;50.880;5.502;2023-06-14T10:16:05;6.82;;;2.92;;
13981;SDS011;7065;50.880;5.502;2023-06-14T10:21:30;2.95;;;2.60;;
13981;SDS011;7065;50.880;5.502;2023-06-14T10:24:03;3.17;;;2.88;;
13981;SDS011;7065;50.880;5.502;2023-06-14T10:26:32;5.65;;;3.00;;
13981;SDS011;7065;50.880;5.502;2023-06-14T10:34:07;4.45;;;3.00;;
13981;SDS011;7065;50.880;5.502;2023-06-14T10:36:33;5.85;;;2.70;;
13981;SDS011;7065;50.880;5.502;2023-06-14T10:39:01;3.45;;;3.10;;
13981;SDS011;7065;50.880;5.502;2023-06-14T10:41:31;4.05;;;2.88;;
13981;SDS011;7065;50.880;5.502;2023-06-14T10:45:00;3.55;;;2.92;;
13981;SDS011;7065;50.880;5.502;2023-06-14T10:46:55;4.47;;;3.03;;
13981;SDS011;7065;50.880;5.502;2023-06-14T10:52:07;6.32;;;3.25;;
13981;SDS011;7065;50.880;5.502;2023-06-14T10:54:59;2.90;;;2.58;;
13981;SDS011;7065;50.880;5.502;2023-06-14T10:57:25;4.78;;;3.00;;
13981;SDS011;7065;50.880;5.502;2023-06-14T10:59:51;3.40;;;3.08;;
13981;SDS011;7065;50.880;5.502;2023-06-14T11:12:52;3.67;;;2.90;;
13981;SDS011;7065;50.880;5.502;2023-06-14T11:15:20;3.92;;;2.80;;
13981;SDS011;7065;50.880;5.502;2023-06-14T11:17:53;3.53;;;2.78;;
13981;SDS011;7065;50.880;5.502;2023-06-14T11:20:19;3.17;;;2.75;;
13981;SDS011;7065;50.880;5.502;2023-06-14T11:22:45;4.15;;;2.35;;
13981;SDS011;7065;50.880;5.502;2023-06-14T11:25:11;3.83;;;2.40;;
13981;SDS011;7065;50.880;5.502;2023-06-14T11:27:37;3.22;;;2.40;;
13981;SDS011;7065;50.880;5.502;2023-06-14T11:30:03;4.18;;;2.92;;
13981;SDS011;7065;50.880;5.502;2023-06-14T11:32:32;2.97;;;2.25;;
13981;SDS011;7065;50.880;5.502;2023-06-14T11:34:57;2.05;;;1.88;;
13981;SDS011;7065;50.880;5.502;2023-06-14T11:37:29;3.95;;;2.20;;
13981;SDS011;7065;50.880;5.502;2023-06-14T11:39:56;2.05;;;1.90;;
13981;SDS011;7065;50.880;5.502;2023-06-14T11:42:22;2.50;;;1.70;;
13981;SDS011;7065;50.880;5.502;2023-06-14T11:44:49;2.33;;;1.60;;
13981;SDS011;7065;50.880;5.502;2023-06-14T11:47:15;1.75;;;1.60;;
13981;SDS011;7065;50.880;5.502;2023-06-14T11:49:41;2.38;;;1.80;;
13981;SDS011;7065;50.880;5.502;2023-06-14T11:52:07;2.00;;;1.80;;
13981;SDS011;7065;50.880;5.502;2023-06-14T11:54:33;3.72;;;1.98;;
13981;SDS011;7065;50.880;5.502;2023-06-14T11:56:58;2.92;;;2.00;;
13981;SDS011;7065;50.880;5.502;2023-06-14T11:59:25;1.80;;;1.70;;
13981;SDS011;7065;50.880;5.502;2023-06-14T12:01:52;2.67;;;1.92;;
13981;SDS011;7065;50.880;5.502;2023-06-14T12:04:24;2.28;;;1.88;;
13981;SDS011;7065;50.880;5.502;2023-06-14T12:06:51;2.85;;;1.98;;
13981;SDS011;7065;50.880;5.502;2023-06-14T12:09:18;2.22;;;1.48;;
13981;SDS011;7065;50.880;5.502;2023-06-14T12:11:44;4.28;;;1.95;;
13981;SDS011;7065;50.880;5.502;2023-06-14T12:14:10;2.97;;;1.95;;
13981;SDS011;7065;50.880;5.502;2023-06-14T12:16:40;3.25;;;1.88;;
13981;SDS011;7065;50.880;5.502;2023-06-14T12:19:12;2.80;;;2.13;;
13981;SDS011;7065;50.880;5.502;2023-06-14T12:21:40;2.53;;;1.83;;
13981;SDS011;7065;50.880;5.502;2023-06-14T12:24:06;4.13;;;2.00;;
13981;SDS011;7065;50.880;5.502;2023-06-14T12:26:32;2.10;;;1.90;;
13981;SDS011;7065;50.880;5.502;2023-06-14T12:28:58;2.67;;;2.22;;
13981;SDS011;7065;50.880;5.502;2023-06-14T12:31:24;3.50;;;2.10;;
13981;SDS011;7065;50.880;5.502;2023-06-14T12:33:51;3.20;;;2.20;;
13981;SDS011;7065;50.880;5.502;2023-06-14T12:36:17;3.55;;;1.90;;
13981;SDS011;7065;50.880;5.502;2023-06-14T12:38:43;2.30;;;2.10;;
13981;SDS011;7065;50.880;5.502;2023-06-14T12:41:10;3.42;;;2.03;;
13981;SDS011;7065;50.880;5.502;2023-06-14T12:43:36;3.33;;;2.08;;
13981;SDS011;7065;50.880;5.502;2023-06-14T12:46:01;4.28;;;1.90;;
13981;SDS011;7065;50.880;5.502;2023-06-14T12:48:27;4.60;;;2.60;;
13981;SDS011;7065;50.880;5.502;2023-06-14T12:50:54;3.90;;;2.35;;
13981;SDS011;7065;50.880;5.502;2023-06-14T12:53:20;3.35;;;1.90;;
13981;SDS011;7065;50.880;5.502;2023-06-14T12:55:46;3.05;;;2.00;;
13981;SDS011;7065;50.880;5.502;2023-06-14T12:58:11;4.47;;;2.38;;
13981;SDS011;7065;50.880;5.502;2023-06-14T13:00:38;4.00;;;2.30;;
13981;SDS011;7065;50.880;5.502;2023-06-14T13:03:04;4.25;;;2.30;;
13981;SDS011;7065;50.880;5.502;2023-06-14T13:05:30;2.38;;;1.80;;
13981;SDS011;7065;50.880;5.502;2023-06-14T13:07:58;2.80;;;2.40;;
13981;SDS011;7065;50.880;5.502;2023-06-14T13:10:24;2.58;;;2.22;;
13981;SDS011;7065;50.880;5.502;2023-06-14T13:12:52;3.47;;;2.13;;
13981;SDS011;7065;50.880;5.502;2023-06-14T13:15:17;3.13;;;1.92;;
13981;SDS011;7065;50.880;5.502;2023-06-14T13:17:43;3.22;;;2.03;;
13981;SDS011;7065;50.880;5.502;2023-06-14T13:20:14;4.68;;;2.45;;
13981;SDS011;7065;50.880;5.502;2023-06-14T13:22:41;5.20;;;2.33;;
13981;SDS011;7065;50.880;5.502;2023-06-14T13:25:06;4.38;;;2.40;;
13981;SDS011;7065;50.880;5.502;2023-06-14T13:27:32;3.78;;;2.22;;
13981;SDS011;7065;50.880;5.502;2023-06-14T13:29:58;4.63;;;2.60;;
13981;SDS011;7065;50.880;5.502;2023-06-14T13:32:24;2.20;;;2.00;;
13981;SDS011;7065;50.880;5.502;2023-06-14T13:34:49;5.13;;;2.70;;
13981;SDS011;7065;50.880;5.502;2023-06-14T13:37:15;3.22;;;2.17;;
13981;SDS011;7065;50.880;5.502;2023-06-14T13:39:41;3.50;;;2.22;;
13981;SDS011;7065;50.880;5.502;2023-06-14T13:42:07;3.67;;;2.40;;
13981;SDS011;7065;50.880;5.502;2023-06-14T13:44:32;4.43;;;2.63;;
13981;SDS011;7065;50.880;5.502;2023-06-14T13:46:58;2.85;;;2.50;;
13981;SDS011;7065;50.880;5.502;2023-06-14T13:49:25;4.28;;;2.50;;
13981;SDS011;7065;50.880;5.502;2023-06-14T13:51:50;2.70;;;2.42;;
13981;SDS011;7065;50.880;5.502;2023-06-14T13:54:18;4.72;;;2.33;;
13981;SDS011;7065;50.880;5.502;2023-06-14T13:56:45;4.30;;;2.17;;
13981;SDS011;7065;50.880;5.502;2023-06-14T13:59:12;4.20;;;2.00;;
13981;SDS011;7065;50.880;5.502;2023-06-14T14:01:37;2.90;;;2.13;;
13981;SDS011;7065;50.880;5.502;2023-06-14T14:04:03;5.72;;;2.15;;
13981;SDS011;7065;50.880;5.502;2023-06-14T14:06:30;2.53;;;2.05;;
13981;SDS011;7065;50.880;5.502;2023-06-14T14:08:56;2.75;;;2.30;;
13981;SDS011;7065;50.880;5.502;2023-06-14T14:11:21;4.93;;;2.10;;
13981;SDS011;7065;50.880;5.502;2023-06-14T14:13:47;3.45;;;2.47;;
13981;SDS011;7065;50.880;5.502;2023-06-14T14:16:13;4.50;;;2.50;;
13981;SDS011;7065;50.880;5.502;2023-06-14T14:18:39;2.95;;;2.20;;
13981;SDS011;7065;50.880;5.502;2023-06-14T14:21:05;3.58;;;2.20;;
13981;SDS011;7065;50.880;5.502;2023-06-14T14:23:31;2.25;;;2.00;;
13981;SDS011;7065;50.880;5.502;2023-06-14T14:25:57;1.98;;;1.70;;
13981;SDS011;7065;50.880;5.502;2023-06-14T14:28:23;2.20;;;2.00;;
13981;SDS011;7065;50.880;5.502;2023-06-14T14:30:48;3.08;;;1.83;;
13981;SDS011;7065;50.880;5.502;2023-06-14T14:33:14;3.38;;;1.63;;
13981;SDS011;7065;50.880;5.502;2023-06-14T14:35:44;4.45;;;1.88;;
13981;SDS011;7065;50.880;5.502;2023-06-14T14:38:14;2.72;;;1.95;;
13981;SDS011;7065;50.880;5.502;2023-06-14T14:40:43;5.20;;;2.05;;
13981;SDS011;7065;50.880;5.502;2023-06-14T14:43:10;2.00;;;1.63;;
13981;SDS011;7065;50.880;5.502;2023-06-14T14:45:36;4.78;;;1.88;;
13981;SDS011;7065;50.880;5.502;2023-06-14T14:48:02;2.92;;;1.88;;
13981;SDS011;7065;50.880;5.502;2023-06-14T14:50:28;3.60;;;1.60;;
13981;SDS011;7065;50.880;5.502;2023-06-14T14:52:54;2.47;;;1.80;;
13981;SDS011;7065;50.880;5.502;2023-06-14T14:55:20;2.13;;;1.77;;
13981;SDS011;7065;50.880;5.502;2023-06-14T14:57:46;1.48;;;1.38;;
13981;SDS011;7065;50.880;5.502;2023-06-14T15:00:13;2.15;;;1.83;;
13981;SDS011;7065;50.880;5.502;2023-06-14T15:02:39;2.53;;;1.85;;
13981;SDS011;7065;50.880;5.502;2023-06-14T15:05:05;2.55;;;1.50;;
13981;SDS011;7065;50.880;5.502;2023-06-14T15:07:31;2.05;;;1.40;;
13981;SDS011;7065;50.880;5.502;2023-06-14T15:09:58;2.13;;;1.60;;
13981;SDS011;7065;50.880;5.502;2023-06-14T15:12:27;3.85;;;1.80;;
13981;SDS011;7065;50.880;5.502;2023-06-14T15:14:53;2.30;;;1.73;;
13981;SDS011;7065;50.880;5.502;2023-06-14T15:17:19;4.28;;;1.77;;
13981;SDS011;7065;50.880;5.502;2023-06-14T15:19:46;2.33;;;1.75;;
13981;SDS011;7065;50.880;5.502;2023-06-14T15:22:12;3.63;;;1.85;;
13981;SDS011;7065;50.880;5.502;2023-06-14T15:24:40;2.70;;;1.92;;